Time;durP1;ratioP1;P1;durP2;ratioP2;P2;SDS_P1;SDS_P2;PMS_P1;PMS_P2;Temp;Humidity;BMP_temperature;BMP_pressure;BME280_temperature;BME280_humidity;BME280_pressure;Samples;Min_cycle;Max_cycle;Signal;HPM_P1;HPM_P2
2021/01/30 00:02:11;;;;;;;6.78;5.80;;;3.40;92.80;;;;;;5117724;27;20071;-38
2021/01/30 00:04:36;;;;;;;6.30;5.70;;;3.40;92.80;;;;;;5105918;28;20064;-43
2021/01/30 00:07:04;;;;;;;7.00;6.30;;;3.40;92.90;;;;;;5118558;27;20023;-39
2021/01/30 00:09:30;;;;;;;8.75;7.25;;;3.40;92.70;;;;;;5105860;28;20023;-41
2021/01/30 00:12:00;;;;;;;9.15;7.78;;;3.40;92.90;;;;;;5117797;27;20035;-40
2021/01/30 00:14:29;;;;;;;8.25;7.45;;;3.40;92.80;;;;;;5105550;28;20126;-41
2021/01/30 00:16:54;;;;;;;9.73;8.75;;;3.30;92.80;;;;;;5118636;27;20058;-41
2021/01/30 00:19:20;;;;;;;9.43;8.40;;;3.30;92.50;;;;;;5105866;27;20062;-40
2021/01/30 00:21:58;;;;;;;8.95;8.05;;;3.20;92.70;;;;;;5115304;27;20747;-40
2021/01/30 00:24:28;;;;;;;8.20;7.15;;;3.20;93.00;;;;;;5107080;27;20062;-41
2021/01/30 00:26:56;;;;;;;8.95;8.05;;;3.20;93.00;;;;;;5114491;27;20490;-41
2021/01/30 00:29:23;;;;;;;8.40;7.60;;;3.20;93.00;;;;;;5108464;27;20031;-40
2021/01/30 00:31:49;;;;;;;7.80;7.00;;;3.20;93.00;;;;;;5112810;27;20011;-41
2021/01/30 00:34:16;;;;;;;9.23;7.38;;;3.20;93.10;;;;;;5110521;27;20076;-41
2021/01/30 00:36:42;;;;;;;8.85;7.75;;;3.20;93.40;;;;;;5109608;27;20023;-41
2021/01/30 00:39:07;;;;;;;10.55;9.40;;;3.20;93.00;;;;;;5113442;27;20382;-38
2021/01/30 00:41:33;;;;;;;12.52;10.20;;;3.20;93.10;;;;;;5106925;27;20016;-41
2021/01/30 00:43:59;;;;;;;12.32;9.93;;;3.20;93.10;;;;;;5115795;27;20448;-41
2021/01/30 00:46:26;;;;;;;11.52;9.60;;;3.20;93.10;;;;;;5106467;27;20030;-40
2021/01/30 00:48:54;;;;;;;11.07;9.60;;;3.10;93.10;;;;;;5116298;27;20042;-41
2021/01/30 00:51:21;;;;;;;10.85;9.75;;;3.10;93.10;;;;;;5107033;27;20031;-41
2021/01/30 00:53:46;;;;;;;9.27;8.27;;;3.20;93.20;;;;;;5115577;27;20016;-41
2021/01/30 00:56:13;;;;;;;11.57;10.27;;;3.10;93.30;;;;;;5105235;28;20115;-41
2021/01/30 00:58:39;;;;;;;12.75;9.73;;;3.10;93.20;;;;;;5117170;27;20035;-39
2021/01/30 01:01:05;;;;;;;11.98;10.57;;;3.10;93.30;;;;;;5104722;28;20016;-41
2021/01/30 01:03:31;;;;;;;12.73;10.77;;;3.10;93.20;;;;;;5117224;27;20054;-40
2021/01/30 01:05:56;;;;;;;12.40;10.68;;;3.00;93.20;;;;;;5104795;28;20024;-38
2021/01/30 01:08:22;;;;;;;13.00;11.13;;;3.00;93.30;;;;;;5113124;27;20073;-41
2021/01/30 01:10:47;;;;;;;14.93;13.25;;;2.90;93.30;;;;;;5106740;27;20027;-37
2021/01/30 01:13:13;;;;;;;15.10;12.48;;;2.90;93.20;;;;;;5112468;27;20551;-40
2021/01/30 01:15:39;;;;;;;13.27;11.65;;;2.80;93.30;;;;;;5108947;27;20023;-40
2021/01/30 01:18:04;;;;;;;13.45;11.65;;;2.80;93.40;;;;;;5109669;27;20035;-40
2021/01/30 01:20:30;;;;;;;13.02;11.55;;;2.80;93.40;;;;;;5112533;27;20016;-40
2021/01/30 01:22:58;;;;;;;16.88;12.75;;;2.80;93.40;;;;;;5106428;27;20030;-40
2021/01/30 01:25:24;;;;;;;12.95;11.63;;;2.70;93.40;;;;;;5115171;27;20019;-40
2021/01/30 01:27:50;;;;;;;14.32;12.32;;;2.70;93.40;;;;;;5105823;28;20426;-41
2021/01/30 01:30:17;;;;;;;12.70;10.77;;;2.70;93.40;;;;;;5116139;27;20023;-40
2021/01/30 01:32:43;;;;;;;14.80;11.40;;;2.70;93.50;;;;;;5105336;28;20070;-39
2021/01/30 01:35:15;;;;;;;14.20;11.13;;;2.70;93.60;;;;;;5115953;27;20483;-40
2021/01/30 01:37:42;;;;;;;12.73;10.85;;;2.70;93.60;;;;;;5104072;28;20543;-40
2021/01/30 01:40:08;;;;;;;11.88;10.50;;;2.70;93.60;;;;;;5117099;27;20051;-40
2021/01/30 01:42:34;;;;;;;12.13;10.77;;;2.70;93.60;;;;;;5103946;28;20039;-40
2021/01/30 01:44:59;;;;;;;13.35;11.48;;;2.70;93.60;;;;;;5116893;27;20046;-40
2021/01/30 01:47:33;;;;;;;12.82;11.38;;;2.70;93.60;;;;;;5104547;28;20053;-38
2021/01/30 01:50:07;;;;;;;12.68;11.32;;;2.70;93.70;;;;;;5116075;28;20368;-41
2021/01/30 01:52:37;;;;;;;12.45;10.65;;;2.70;93.60;;;;;;5104297;28;20028;-40
2021/01/30 01:55:18;;;;;;;12.90;10.82;;;2.60;93.50;;;;;;5115610;28;20030;-39
2021/01/30 01:57:51;;;;;;;12.13;10.88;;;2.60;93.50;;;;;;5103780;28;20039;-40
2021/01/30 02:00:19;;;;;;;11.88;9.70;;;2.60;93.30;;;;;;5115756;28;20033;-39
2021/01/30 02:02:51;;;;;;;10.25;9.10;;;2.50;93.30;;;;;;5104033;28;20035;-38
2021/01/30 02:05:32;;;;;;;9.77;8.77;;;2.50;93.20;;;;;;5114535;28;20074;-40
2021/01/30 02:08:01;;;;;;;9.07;8.18;;;2.50;93.10;;;;;;5103968;28;20031;-37
2021/01/30 02:10:31;;;;;;;8.68;7.82;;;2.50;92.60;;;;;;5116512;27;20039;-40
2021/01/30 02:13:03;;;;;;;8.68;7.78;;;2.50;92.90;;;;;;5108655;27;20050;-40
2021/01/30 02:15:29;;;;;;;8.60;7.70;;;2.50;92.90;;;;;;5117190;27;20064;-39
2021/01/30 02:18:40;;;;;;;8.35;7.35;;;2.40;92.80;;;;;;5111069;27;20032;-38
2021/01/30 02:21:30;;;;;;;8.18;7.20;;;2.40;92.80;;;;;;5120501;27;20038;-40
2021/01/30 02:24:29;;;;;;;6.28;5.43;;;2.40;92.90;;;;;;5108070;28;20020;-41
2021/01/30 02:27:24;;;;;;;7.88;7.07;;;2.40;92.90;;;;;;5119019;27;20106;-40
2021/01/30 02:30:17;;;;;;;7.57;6.68;;;2.30;92.80;;;;;;5108986;27;20023;-41
2021/01/30 02:33:24;;;;;;;7.55;6.85;;;2.30;92.80;;;;;;5117555;27;20083;-40
2021/01/30 02:36:08;;;;;;;8.70;7.80;;;2.30;92.70;;;;;;5121202;27;20119;-39
2021/01/30 02:38:39;;;;;;;9.45;8.45;;;2.30;92.60;;;;;;5124192;27;20474;-38
2021/01/30 02:41:27;;;;;;;10.93;9.35;;;2.30;92.60;;;;;;5120791;27;20020;-41
2021/01/30 02:43:56;;;;;;;8.13;7.32;;;2.30;92.70;;;;;;5125670;27;20027;-39
2021/01/30 02:46:30;;;;;;;9.00;7.85;;;2.30;92.80;;;;;;5119407;27;20027;-39
2021/01/30 02:49:01;;;;;;;7.93;7.13;;;2.30;92.90;;;;;;5124583;27;20023;-37
2021/01/30 02:51:35;;;;;;;8.68;7.75;;;2.30;92.80;;;;;;5120373;27;20015;-39
2021/01/30 02:54:04;;;;;;;7.72;6.93;;;2.30;92.80;;;;;;5122810;27;20118;-40
2021/01/30 02:56:29;;;;;;;9.48;7.43;;;2.30;92.90;;;;;;5121562;27;20371;-39
2021/01/30 02:59:01;;;;;;;8.45;7.15;;;2.40;92.90;;;;;;5120574;27;20482;-39
2021/01/30 03:01:27;;;;;;;8.27;7.47;;;2.40;92.90;;;;;;5122659;27;20047;-39
2021/01/30 03:03:55;;;;;;;8.13;7.32;;;2.40;92.90;;;;;;5119035;27;20031;-39
2021/01/30 03:06:27;;;;;;;9.65;8.38;;;2.40;92.90;;;;;;5125478;27;20027;-39
2021/01/30 03:09:07;;;;;;;7.85;7.00;;;2.40;92.60;;;;;;5117401;27;20055;-36
2021/01/30 03:12:01;;;;;;;8.85;7.68;;;2.40;92.70;;;;;;5124845;27;20334;-39
2021/01/30 03:14:28;;;;;;;8.30;7.40;;;2.40;92.70;;;;;;5120161;27;20055;-40
2021/01/30 03:16:59;;;;;;;7.97;7.13;;;2.40;92.70;;;;;;5123223;27;20015;-40
2021/01/30 03:19:28;;;;;;;8.55;7.68;;;2.40;92.70;;;;;;5118577;27;20049;-40
2021/01/30 03:22:02;;;;;;;8.15;7.35;;;2.40;92.60;;;;;;5124363;27;20043;-40
2021/01/30 03:24:29;;;;;;;8.65;7.63;;;2.40;92.60;;;;;;5117754;27;20027;-39
2021/01/30 03:26:55;;;;;;;8.32;6.80;;;2.30;92.60;;;;;;5125157;27;20038;-38
2021/01/30 03:29:21;;;;;;;7.78;7.00;;;2.40;92.70;;;;;;5115537;27;20035;-40
2021/01/30 03:31:47;;;;;;;7.63;6.15;;;2.30;92.70;;;;;;5125043;27;20046;-40
2021/01/30 03:34:14;;;;;;;8.43;6.82;;;2.30;92.70;;;;;;5115462;27;20027;-39
2021/01/30 03:36:40;;;;;;;8.00;7.15;;;2.30;92.40;;;;;;5126581;27;20096;-38
2021/01/30 03:39:12;;;;;;;7.57;6.88;;;2.30;92.50;;;;;;5119334;27;20501;-39
2021/01/30 03:41:37;;;;;;;7.10;6.40;;;2.30;92.50;;;;;;5106535;28;20400;-39
2021/01/30 03:44:03;;;;;;;8.35;7.03;;;2.30;92.40;;;;;;5119027;27;20304;-39
2021/01/30 03:46:29;;;;;;;8.25;7.00;;;2.20;92.30;;;;;;5106294;28;20374;-39
2021/01/30 03:48:54;;;;;;;7.22;6.53;;;2.20;92.30;;;;;;5118252;27;20023;-39
2021/01/30 03:51:20;;;;;;;7.95;7.13;;;2.20;92.20;;;;;;5107036;27;20412;-39
2021/01/30 03:53:45;;;;;;;8.48;7.38;;;2.20;92.20;;;;;;5115151;27;20489;-37
2021/01/30 03:56:11;;;;;;;7.32;6.50;;;2.20;92.10;;;;;;5109731;27;20051;-39
2021/01/30 03:58:41;;;;;;;6.50;5.85;;;2.10;92.20;;;;;;5112100;27;20453;-39
2021/01/30 04:01:07;;;;;;;7.88;6.85;;;2.10;92.20;;;;;;5112057;27;20049;-40
2021/01/30 04:03:33;;;;;;;7.32;6.03;;;2.10;92.30;;;;;;5110180;27;20030;-38
2021/01/30 04:05:59;;;;;;;7.32;6.43;;;2.10;92.40;;;;;;5114476;27;20041;-38
2021/01/30 04:08:27;;;;;;;7.55;6.05;;;2.10;92.20;;;;;;5107867;27;20121;-40
2021/01/30 04:10:53;;;;;;;7.13;6.32;;;2.10;92.20;;;;;;5115839;27;20020;-37
2021/01/30 04:13:19;;;;;;;7.53;6.20;;;2.10;92.30;;;;;;5107307;27;20044;-37
2021/01/30 04:15:45;;;;;;;6.20;5.60;;;2.10;92.30;;;;;;5116947;27;20020;-39
2021/01/30 04:18:13;;;;;;;6.75;5.97;;;2.10;92.30;;;;;;5106354;27;20133;-38
2021/01/30 04:20:38;;;;;;;6.93;6.22;;;2.10;92.20;;;;;;5117025;27;20122;-39
2021/01/30 04:23:05;;;;;;;6.45;5.78;;;2.10;92.20;;;;;;5106281;28;20493;-40
2021/01/30 04:25:31;;;;;;;6.97;6.28;;;2.10;92.10;;;;;;5117336;27;20091;-40
2021/01/30 04:27:57;;;;;;;7.07;6.28;;;2.10;92.00;;;;;;5105651;28;20468;-39
2021/01/30 04:30:26;;;;;;;8.13;7.28;;;2.10;92.00;;;;;;5118419;27;20034;-38
2021/01/30 04:32:51;;;;;;;7.35;6.60;;;2.10;91.80;;;;;;5104438;28;20118;-39
2021/01/30 04:35:21;;;;;;;7.85;6.90;;;2.10;91.80;;;;;;5116048;27;20033;-39
2021/01/30 04:37:47;;;;;;;6.45;5.85;;;2.00;91.70;;;;;;5107096;27;20041;-39
2021/01/30 04:40:36;;;;;;;6.85;5.97;;;1.90;91.80;;;;;;5113519;27;20031;-40
2021/01/30 04:43:37;;;;;;;6.35;5.75;;;1.80;92.00;;;;;;5106351;27;20506;-39
2021/01/30 04:46:14;;;;;;;4.93;4.43;;;1.70;91.90;;;;;;5117908;27;20030;-38
2021/01/30 04:48:55;;;;;;;5.15;4.60;;;1.60;92.00;;;;;;5105307;28;20027;-40
2021/01/30 04:51:36;;;;;;;4.80;4.30;;;1.50;91.80;;;;;;5117946;27;20039;-40
2021/01/30 04:54:16;;;;;;;4.75;4.25;;;1.50;91.70;;;;;;5104900;28;20075;-39
2021/01/30 04:57:08;;;;;;;4.80;3.88;;;1.50;91.50;;;;;;5117176;27;20015;-39
2021/01/30 04:59:38;;;;;;;5.32;4.43;;;1.40;91.40;;;;;;5105517;27;20028;-39
2021/01/30 05:02:14;;;;;;;4.07;3.67;;;1.40;91.30;;;;;;5116803;27;20027;-37
2021/01/30 05:04:51;;;;;;;4.40;4.00;;;1.40;91.40;;;;;;5105108;28;20024;-40
2021/01/30 05:07:38;;;;;;;4.32;3.92;;;1.40;91.30;;;;;;5116273;27;20129;-37
2021/01/30 05:10:16;;;;;;;4.45;4.05;;;1.30;91.40;;;;;;5106662;27;20058;-40
2021/01/30 05:13:02;;;;;;;4.60;4.03;;;1.30;91.40;;;;;;5116025;27;20072;-39
2021/01/30 05:15:42;;;;;;;4.13;3.72;;;1.30;91.50;;;;;;5105706;27;20047;-39
2021/01/30 05:18:30;;;;;;;4.57;3.38;;;1.30;91.60;;;;;;5114899;27;20055;-40
2021/01/30 05:21:03;;;;;;;4.10;3.65;;;1.20;91.70;;;;;;5122224;27;20039;-39
2021/01/30 05:23:31;;;;;;;4.05;3.58;;;1.20;91.80;;;;;;5115753;27;20393;-39
2021/01/30 05:26:14;;;;;;;3.72;3.40;;;1.20;91.90;;;;;;5123504;27;20091;-38
2021/01/30 05:28:43;;;;;;;;;;;1.20;92.00;;;;;;5115588;27;20035;-37
2021/01/30 05:31:25;;;;;;;5.13;4.63;;;1.10;92.00;;;;;;5123584;27;19907;-38
2021/01/30 05:34:18;;;;;;;6.60;4.93;;;1.10;92.00;;;;;;5116147;27;20019;-39
2021/01/30 05:36:58;;;;;;;5.15;4.65;;;1.00;92.20;;;;;;5118900;27;20066;-38
2021/01/30 05:39:29;;;;;;;5.30;4.70;;;1.00;92.30;;;;;;5119946;27;20130;-34
2021/01/30 05:42:20;;;;;;;4.95;4.45;;;1.00;92.40;;;;;;5119254;27;20107;-39
2021/01/30 05:45:12;;;;;;;6.25;5.65;;;1.10;92.60;;;;;;5120467;27;20031;-36
2021/01/30 05:47:38;;;;;;;7.07;5.80;;;1.20;92.60;;;;;;5114070;27;20024;-39
2021/01/30 05:50:10;;;;;;;5.25;4.75;;;1.30;92.60;;;;;;5121657;28;20023;-37
2021/01/30 05:52:37;;;;;;;5.80;4.82;;;1.30;92.60;;;;;;5116496;28;20020;-38
2021/01/30 05:55:05;;;;;;;6.97;5.03;;;1.40;92.60;;;;;;5120613;28;20640;-40
2021/01/30 05:57:31;;;;;;;5.88;5.00;;;1.40;92.60;;;;;;5117930;28;20115;-40
2021/01/30 05:59:59;;;;;;;5.50;5.00;;;1.50;92.60;;;;;;5118270;28;20470;-40
2021/01/30 06:02:34;;;;;;;5.13;4.60;;;1.50;92.60;;;;;;5120822;28;20026;-39
2021/01/30 06:05:17;;;;;;;5.10;4.60;;;1.50;92.60;;;;;;5116460;28;20038;-39
2021/01/30 06:07:42;;;;;;;5.75;5.15;;;1.60;92.50;;;;;;5118932;28;20110;-40
2021/01/30 06:10:29;;;;;;;6.75;5.10;;;1.60;92.40;;;;;;5116250;28;20419;-41
2021/01/30 06:13:17;;;;;;;5.63;5.05;;;1.60;92.40;;;;;;5119307;28;20051;-39
2021/01/30 06:15:49;;;;;;;5.90;5.30;;;1.60;92.30;;;;;;5119199;28;20023;-37
2021/01/30 06:18:34;;;;;;;6.00;5.40;;;1.60;92.10;;;;;;5117774;28;20438;-39
2021/01/30 06:21:03;;;;;;;7.60;5.50;;;1.60;92.10;;;;;;5118968;28;20046;-40
2021/01/30 06:23:29;;;;;;;6.68;5.45;;;1.60;92.10;;;;;;5116859;28;20483;-37
2021/01/30 06:26:21;;;;;;;5.50;4.95;;;1.60;92.10;;;;;;5118070;28;20610;-40
2021/01/30 06:28:58;;;;;;;7.10;5.40;;;1.60;92.20;;;;;;5111128;28;20028;-39
2021/01/30 06:31:31;;;;;;;6.70;5.72;;;1.60;92.20;;;;;;5120910;28;20041;-39
2021/01/30 06:34:15;;;;;;;;;;;1.60;92.20;;;;;;5116700;28;20035;-39
2021/01/30 06:36:48;;;;;;;6.22;5.60;;;1.60;92.10;;;;;;5121317;28;19907;-40
2021/01/30 06:39:19;;;;;;;5.88;5.32;;;1.60;92.10;;;;;;5115280;28;20044;-39
2021/01/30 06:41:51;;;;;;;6.93;5.95;;;1.60;92.10;;;;;;5120608;28;20095;-39
2021/01/30 06:44:27;;;;;;;7.38;6.55;;;1.60;92.10;;;;;;5117257;28;20076;-40
2021/01/30 06:47:19;;;;;;;6.07;5.40;;;1.60;92.10;;;;;;5120936;28;20076;-38
2021/01/30 06:49:56;;;;;;;6.32;5.68;;;1.60;92.00;;;;;;5114347;28;20023;-40
2021/01/30 06:52:24;;;;;;;5.63;5.03;;;1.60;92.00;;;;;;5124029;28;20027;-40
2021/01/30 06:55:11;;;;;;;7.05;6.28;;;1.60;92.00;;;;;;5115465;28;20110;-39
2021/01/30 06:57:48;;;;;;;7.22;5.32;;;1.60;91.90;;;;;;5128613;27;20528;-40
2021/01/30 07:00:20;;;;;;;7.85;5.80;;;1.60;92.00;;;;;;5116697;27;20020;-38
2021/01/30 07:02:50;;;;;;;6.93;6.07;;;1.60;92.00;;;;;;5128112;27;20331;-39
2021/01/30 07:05:40;;;;;;;7.38;6.20;;;1.60;92.00;;;;;;5118895;27;20093;-40
2021/01/30 07:08:24;;;;;;;7.10;6.30;;;1.60;92.00;;;;;;5107636;28;20443;-41
2021/01/30 07:11:01;;;;;;;7.88;6.20;;;1.60;92.10;;;;;;5120671;27;20147;-41
2021/01/30 07:13:29;;;;;;;7.80;5.70;;;1.60;92.10;;;;;;5107879;28;20066;-41
2021/01/30 07:16:07;;;;;;;6.05;5.22;;;1.60;92.10;;;;;;5120715;27;20034;-39
2021/01/30 07:18:52;;;;;;;6.65;5.07;;;1.60;92.10;;;;;;5107874;28;20135;-40
2021/01/30 07:21:21;;;;;;;6.90;5.95;;;1.60;92.20;;;;;;5121134;27;20390;-40
2021/01/30 07:23:55;;;;;;;5.90;5.22;;;1.60;92.10;;;;;;5107970;28;20106;-41
2021/01/30 07:26:31;;;;;;;5.97;5.32;;;1.70;92.10;;;;;;5120793;27;20110;-41
2021/01/30 07:29:01;;;;;;;6.32;5.50;;;1.70;92.10;;;;;;5107675;28;20270;-39
2021/01/30 07:31:37;;;;;;;6.22;5.40;;;1.70;92.20;;;;;;5120247;27;20110;-40
2021/01/30 07:34:16;;;;;;;6.60;5.70;;;1.70;92.20;;;;;;5108170;28;20019;-39
2021/01/30 07:36:50;;;;;;;7.32;6.32;;;1.70;92.10;;;;;;5120112;27;20133;-40
2021/01/30 07:39:28;;;;;;;10.02;6.70;;;1.70;92.00;;;;;;5107577;28;20035;-41
2021/01/30 07:42:03;;;;;;;6.97;5.63;;;1.70;91.90;;;;;;5119527;27;20028;-40
2021/01/30 07:45:01;;;;;;;7.28;5.65;;;1.60;91.90;;;;;;5107825;28;20078;-40
2021/01/30 07:47:31;;;;;;;7.82;6.28;;;1.60;91.90;;;;;;5107323;27;20087;-40
2021/01/30 07:50:01;;;;;;;6.63;5.93;;;1.60;91.80;;;;;;5127564;27;20551;-40
2021/01/30 07:52:31;;;;;;;7.63;5.80;;;1.60;91.90;;;;;;5114907;27;20035;-40
2021/01/30 07:54:58;;;;;;;6.78;5.90;;;1.60;91.90;;;;;;5127880;27;20054;-41
2021/01/30 07:57:58;;;;;;;6.93;5.70;;;1.60;91.70;;;;;;5114445;27;20172;-41
2021/01/30 08:00:52;;;;;;;8.25;5.60;;;1.60;91.70;;;;;;5127811;27;20493;-41
2021/01/30 08:03:52;;;;;;;7.32;5.70;;;1.60;91.60;;;;;;5118326;27;20092;-38
2021/01/30 08:06:41;;;;;;;5.90;5.28;;;1.60;91.60;;;;;;5107515;28;20016;-38
2021/01/30 08:09:29;;;;;;;7.57;6.10;;;1.60;91.60;;;;;;5119523;27;20465;-40
2021/01/30 08:12:19;;;;;;;7.88;6.07;;;1.60;91.60;;;;;;5121677;27;20027;-38
2021/01/30 08:14:49;;;;;;;7.90;5.15;;;1.60;91.60;;;;;;5122227;27;20054;-40
2021/01/30 08:17:26;;;;;;;7.47;5.63;;;1.60;91.70;;;;;;5120207;27;20042;-42
2021/01/30 08:20:04;;;;;;;8.35;6.47;;;1.60;91.70;;;;;;5122646;27;20103;-37
2021/01/30 08:22:54;;;;;;;7.72;6.32;;;1.60;91.70;;;;;;5119842;27;20024;-40
2021/01/30 08:25:30;;;;;;;7.60;6.20;;;1.60;91.60;;;;;;5106594;27;20035;-40
2021/01/30 08:28:16;;;;;;;9.48;6.88;;;1.60;91.40;;;;;;5117825;27;20039;-38
2021/01/30 08:30:43;;;;;;;9.07;6.63;;;1.60;91.40;;;;;;5125808;27;20035;-40
2021/01/30 08:33:09;;;;;;;8.10;6.65;;;1.60;91.30;;;;;;5117552;27;20042;-36
2021/01/30 08:35:50;;;;;;;9.38;6.80;;;1.50;91.30;;;;;;5123673;27;20053;-39
2021/01/30 08:38:16;;;;;;;10.05;6.75;;;1.60;91.40;;;;;;5117135;27;20035;-39
2021/01/30 08:41:10;;;;;;;8.15;6.13;;;1.60;91.50;;;;;;5123837;27;20083;-37
2021/01/30 08:43:38;;;;;;;8.30;6.90;;;1.60;91.60;;;;;;5116246;27;20023;-38
2021/01/30 08:46:24;;;;;;;8.30;6.38;;;1.70;91.60;;;;;;5124900;27;20489;-40
2021/01/30 08:49:14;;;;;;;8.80;6.75;;;1.80;91.70;;;;;;5115657;27;20031;-38
2021/01/30 08:51:45;;;;;;;7.40;6.22;;;1.80;91.70;;;;;;5105753;28;20089;-41
2021/01/30 08:54:36;;;;;;;9.27;7.55;;;1.90;91.50;;;;;;5119066;27;20474;-41
2021/01/30 08:57:04;;;;;;;8.80;7.20;;;1.90;91.30;;;;;;5106195;28;20112;-39
2021/01/30 08:59:45;;;;;;;9.38;7.78;;;1.90;91.40;;;;;;5118364;27;20149;-40
2021/01/30 09:02:33;;;;;;;9.23;7.20;;;1.90;91.40;;;;;;5106713;28;20012;-41
2021/01/30 09:05:29;;;;;;;9.43;7.70;;;1.90;91.50;;;;;;5118351;27;20113;-40
2021/01/30 09:07:56;;;;;;;7.97;6.47;;;1.90;91.40;;;;;;5105895;27;20798;-41
2021/01/30 09:10:21;;;;;;;8.73;7.00;;;1.90;91.20;;;;;;5117995;27;20019;-40
2021/01/30 09:12:54;;;;;;;9.02;7.50;;;1.90;91.30;;;;;;5101806;28;20090;-40
2021/01/30 09:15:41;;;;;;;8.95;7.10;;;1.90;91.20;;;;;;5114184;27;20091;-41
2021/01/30 09:18:24;;;;;;;8.82;6.47;;;1.90;91.20;;;;;;5125603;27;20101;-40
2021/01/30 09:21:17;;;;;;;9.73;7.00;;;1.90;91.30;;;;;;5113460;27;20031;-40
2021/01/30 09:24:21;;;;;;;8.55;6.88;;;1.90;91.30;;;;;;5105741;27;20026;-40
2021/01/30 09:26:52;;;;;;;9.43;6.68;;;2.00;91.20;;;;;;5065329;28;20515;-40
2021/01/30 09:29:25;;;;;;;9.75;7.55;;;1.90;91.20;;;;;;5108989;27;20650;-37
2021/01/30 09:31:56;;;;;;;8.63;7.03;;;1.90;91.10;;;;;;5113352;27;20023;-39
2021/01/30 09:34:23;;;;;;;8.10;6.63;;;1.90;91.00;;;;;;5107248;27;20027;-39
2021/01/30 09:36:51;;;;;;;7.65;5.93;;;1.90;91.50;;;;;;5119971;27;20062;-39
2021/01/30 09:39:23;;;;;;;8.63;7.03;;;1.90;91.10;;;;;;5122250;27;20548;-40
2021/01/30 09:41:49;;;;;;;10.13;7.65;;;2.00;91.50;;;;;;5115623;27;20114;-40
2021/01/30 09:44:22;;;;;;;8.65;7.05;;;2.00;90.90;;;;;;5106450;27;20169;-40
2021/01/30 09:46:56;;;;;;;9.45;6.43;;;2.00;91.00;;;;;;5115752;28;20672;-40
2021/01/30 09:49:36;;;;;;;8.25;6.30;;;2.00;91.00;;;;;;5106269;28;20359;-39
2021/01/30 09:52:05;;;;;;;8.45;6.65;;;2.00;91.40;;;;;;5116059;28;20070;-40
2021/01/30 09:54:31;;;;;;;7.75;6.45;;;2.10;91.10;;;;;;5106312;28;20038;-40
2021/01/30 09:57:02;;;;;;;9.77;7.55;;;2.10;91.10;;;;;;5115250;28;20528;-39
2021/01/30 09:59:29;;;;;;;9.32;6.97;;;2.20;91.00;;;;;;5104603;28;20090;-40
2021/01/30 10:02:11;;;;;;;10.55;7.68;;;2.20;90.90;;;;;;5111952;28;20061;-40
2021/01/30 10:04:37;;;;;;;10.45;7.07;;;2.20;90.90;;;;;;5125084;28;20077;-40
2021/01/30 10:07:10;;;;;;;8.68;7.13;;;2.20;90.90;;;;;;5112631;28;20094;-40
2021/01/30 10:09:42;;;;;;;9.65;7.43;;;2.20;90.90;;;;;;5124837;28;20170;-40
2021/01/30 10:12:08;;;;;;;9.48;7.22;;;2.30;90.80;;;;;;5112086;28;20031;-40
2021/01/30 10:14:37;;;;;;;8.15;6.60;;;2.30;90.80;;;;;;5125458;28;20496;-39
2021/01/30 10:17:13;;;;;;;7.72;6.10;;;2.30;90.90;;;;;;5111642;28;20467;-39
2021/01/30 10:19:39;;;;;;;7.63;6.35;;;2.30;90.90;;;;;;5125350;28;20046;-40
2021/01/30 10:22:21;;;;;;;8.35;6.32;;;2.30;91.00;;;;;;5113116;28;20399;-39
2021/01/30 10:24:48;;;;;;;7.90;6.22;;;2.40;91.00;;;;;;5104751;28;20105;-39
2021/01/30 10:27:24;;;;;;;9.23;7.35;;;2.40;90.90;;;;;;5117566;28;20027;-39
2021/01/30 10:29:56;;;;;;;7.38;6.57;;;2.40;90.50;;;;;;5111448;27;20023;-42
2021/01/30 10:32:40;;;;;;;;;;;2.50;90.70;;;;;;5127783;27;20049;-40
2021/01/30 10:35:14;;;;;;;8.48;6.80;;;2.50;90.50;;;;;;5123619;27;19907;-40
2021/01/30 10:37:52;;;;;;;8.65;7.05;;;2.50;90.40;;;;;;5113523;27;20048;-40
2021/01/30 10:40:38;;;;;;;8.10;6.45;;;2.60;90.40;;;;;;5129130;27;20027;-40
2021/01/30 10:43:07;;;;;;;7.53;6.70;;;2.70;90.20;;;;;;5127225;27;20151;-41
2021/01/30 10:45:37;;;;;;;8.95;6.95;;;2.70;90.20;;;;;;5129493;27;20039;-40
2021/01/30 10:48:09;;;;;;;8.07;7.00;;;2.70;90.10;;;;;;5116528;27;20019;-41
2021/01/30 10:50:38;;;;;;;9.57;7.00;;;2.70;90.00;;;;;;5109014;27;20104;-40
2021/01/30 10:53:21;;;;;;;7.50;6.70;;;2.70;90.10;;;;;;5122953;27;20117;-40
2021/01/30 10:55:48;;;;;;;9.85;7.10;;;2.70;89.90;;;;;;5107808;28;20072;-40
2021/01/30 10:58:34;;;;;;;9.60;7.38;;;2.80;89.30;;;;;;5112514;27;20659;-40
2021/01/30 11:01:04;;;;;;;8.52;6.95;;;2.80;89.90;;;;;;5103729;27;20708;-40
2021/01/30 11:03:53;;;;;;;8.48;7.25;;;2.80;89.80;;;;;;5106802;27;20020;-41
2021/01/30 11:06:41;;;;;;;8.38;7.38;;;2.80;89.90;;;;;;5106557;27;20039;-41
2021/01/30 11:09:14;;;;;;;8.57;6.68;;;2.80;89.90;;;;;;5119907;27;20024;-38
2021/01/30 11:11:40;;;;;;;;;;;2.90;89.90;;;;;;5105592;28;20390;-41
2021/01/30 11:14:27;;;;;;;7.28;6.10;;;2.90;89.10;;;;;;5119294;27;19922;-40
2021/01/30 11:16:54;;;;;;;8.02;6.78;;;2.90;89.20;;;;;;5107688;28;20024;-41
2021/01/30 11:19:37;;;;;;;9.98;7.35;;;3.00;89.60;;;;;;5119955;27;20061;-41
2021/01/30 11:22:20;;;;;;;9.82;7.78;;;3.00;89.50;;;;;;5106324;28;20177;-41
2021/01/30 11:24:50;;;;;;;;;;;3.00;88.90;;;;;;5122978;27;20251;-42
2021/01/30 11:27:46;;;;;;;7.97;6.88;;;3.10;89.20;;;;;;5128644;27;19904;-42
2021/01/30 11:30:23;;;;;;;7.50;6.53;;;3.10;89.50;;;;;;5095268;27;20031;-41
2021/01/30 11:32:54;;;;;;;7.53;6.72;;;3.10;89.20;;;;;;5126029;27;20059;-39
2021/01/30 11:35:36;;;;;;;7.80;6.88;;;3.20;89.10;;;;;;5111690;27;20185;-39
2021/01/30 11:38:09;;;;;;;9.30;7.22;;;3.20;88.80;;;;;;5127424;27;20139;-39
2021/01/30 11:40:35;;;;;;;7.65;6.75;;;3.20;88.90;;;;;;5118109;27;20019;-40
2021/01/30 11:43:01;;;;;;;7.22;6.53;;;3.30;88.80;;;;;;5106137;27;20840;-40
2021/01/30 11:45:26;;;;;;;7.88;6.40;;;3.40;88.50;;;;;;5115590;27;20103;-40
2021/01/30 11:47:52;;;;;;;8.52;7.07;;;3.40;88.60;;;;;;5126461;27;20027;-40
2021/01/30 11:50:18;;;;;;;9.70;7.18;;;3.50;88.30;;;;;;5115650;27;20016;-38
2021/01/30 11:52:44;;;;;;;7.47;6.72;;;3.50;88.20;;;;;;5127256;27;20023;-40
2021/01/30 11:55:10;;;;;;;9.38;6.65;;;3.50;88.20;;;;;;5115801;27;20101;-41
2021/01/30 11:57:35;;;;;;;9.80;8.35;;;3.60;88.30;;;;;;5128353;27;20023;-39
2021/01/30 12:00:01;;;;;;;11.13;7.65;;;3.60;87.90;;;;;;5118714;27;20533;-37
2021/01/30 12:02:32;;;;;;;9.38;8.10;;;3.60;87.90;;;;;;5114354;27;20016;-41
2021/01/30 12:04:58;;;;;;;8.63;7.47;;;3.60;87.80;;;;;;5122913;27;20402;-40
2021/01/30 12:07:24;;;;;;;11.25;7.85;;;3.60;87.80;;;;;;5112057;27;20482;-41
2021/01/30 12:09:53;;;;;;;10.27;8.32;;;3.60;88.10;;;;;;5114165;27;20034;-41
2021/01/30 12:12:18;;;;;;;9.55;8.07;;;3.60;87.80;;;;;;5121377;27;20114;-41
2021/01/30 12:14:45;;;;;;;9.93;8.23;;;3.50;87.20;;;;;;5124321;27;20130;-40
2021/01/30 12:17:17;;;;;;;8.55;7.65;;;3.40;87.20;;;;;;5117524;27;20204;-41
2021/01/30 12:19:43;;;;;;;9.38;7.93;;;3.40;87.70;;;;;;5126270;27;20035;-38
2021/01/30 12:22:09;;;;;;;9.10;8.18;;;3.40;87.70;;;;;;5114608;27;20531;-40
2021/01/30 12:24:34;;;;;;;9.93;7.60;;;3.40;87.90;;;;;;5112202;27;20026;-41
2021/01/30 12:27:00;;;;;;;9.15;7.95;;;3.40;87.80;;;;;;5116086;27;20008;-40
2021/01/30 12:29:26;;;;;;;9.65;7.53;;;3.50;88.00;;;;;;5126801;27;20023;-42
2021/01/30 12:31:51;;;;;;;9.32;8.27;;;3.50;87.50;;;;;;5113241;27;20106;-40
2021/01/30 12:34:17;;;;;;;8.85;7.18;;;3.40;87.20;;;;;;5127903;27;20023;-40
2021/01/30 12:36:42;;;;;;;7.95;7.03;;;3.40;87.40;;;;;;5113135;27;20040;-40
2021/01/30 12:39:08;;;;;;;8.15;7.13;;;3.50;87.90;;;;;;5112363;27;20062;-41
2021/01/30 12:41:33;;;;;;;8.07;7.00;;;3.50;88.10;;;;;;5117485;27;20051;-37
2021/01/30 12:43:59;;;;;;;9.00;7.95;;;3.60;87.90;;;;;;5107993;27;20028;-37
2021/01/30 12:46:24;;;;;;;8.93;7.75;;;3.60;87.80;;;;;;5115275;27;20106;-39
2021/01/30 12:48:50;;;;;;;8.68;7.38;;;3.60;87.80;;;;;;5111784;27;20035;-41
2021/01/30 12:51:16;;;;;;;10.40;8.50;;;3.60;87.90;;;;;;5126978;27;20023;-41
2021/01/30 12:53:41;;;;;;;9.38;8.00;;;3.70;87.60;;;;;;5127749;27;20039;-40
2021/01/30 12:56:07;;;;;;;8.90;7.97;;;3.70;87.10;;;;;;5124026;27;20116;-40
2021/01/30 12:58:33;;;;;;;9.52;8.48;;;3.70;87.10;;;;;;5114362;27;20039;-39
2021/01/30 13:00:59;;;;;;;8.50;7.43;;;3.70;87.00;;;;;;5111735;27;20100;-40
2021/01/30 13:03:25;;;;;;;12.45;8.98;;;3.70;87.40;;;;;;5114734;27;20637;-41
2021/01/30 13:05:51;;;;;;;10.55;8.95;;;3.70;87.10;;;;;;5123501;27;20027;-41
2021/01/30 13:08:18;;;;;;;9.65;8.32;;;3.80;87.00;;;;;;5116994;27;20019;-41
2021/01/30 13:10:43;;;;;;;10.18;8.57;;;3.70;86.80;;;;;;5105148;28;20028;-41
2021/01/30 13:13:09;;;;;;;13.02;8.82;;;3.70;86.70;;;;;;5117302;27;20038;-41
2021/01/30 13:15:35;;;;;;;8.63;7.72;;;3.70;86.00;;;;;;5105397;28;20390;-40
2021/01/30 13:18:01;;;;;;;9.60;7.45;;;3.60;86.30;;;;;;5117835;27;20043;-41
2021/01/30 13:20:27;;;;;;;9.15;7.57;;;3.60;86.30;;;;;;5123441;27;20072;-41
2021/01/30 13:22:54;;;;;;;9.40;7.90;;;3.60;86.70;;;;;;5120643;27;20015;-40
2021/01/30 13:25:20;;;;;;;8.95;7.65;;;3.60;86.60;;;;;;5125741;27;20052;-41
2021/01/30 13:27:46;;;;;;;9.18;7.93;;;3.60;86.80;;;;;;5125137;27;20023;-41